Radar is unstable, so pay attention to the date and time in the image

Latest  Newer  Older  Last 2 hours animation  Current image  Latest image  Summary per 24h (testing)  Summary per 7d (testing) 
Cloud coverage sat images  Infrared sat images 
Real-time lightning map Aurora Forecast

All time is UTC (add 2 hours in wintertime, 3 hours in DST for Latvia local time)

2021/06/22 04:20 EVRA 220420Z 15006KT 120V180 CAVOK 23/17 Q1011 NOSIG
2021/06/22 04:20 EVLA 220420Z AUTO 13005KT 100V160 9999 NCD 23/16 Q1008
2021/06/22 04:20 EVVA 220420Z AUTO 14005KT CAVOK 23/19 Q1009
2021/06/22 04:20 EYKA 220420Z 13003KT 100V170 CAVOK 22/17 Q1011
2021/06/22 04:20 EYPA 220420Z 15008KT CAVOK 23/16 Q1009
2021/06/22 04:20 EYSA 220420Z 13009KT CAVOK 21/17 Q1011 BLU NOSIG
2021/06/22 04:20 EYVI 220420Z 16008KT 9000 NSC 22/18 Q1012 NOSIG
2021/06/22 03:50 EEKA 220350Z 15007KT CAVOK 24/19 Q1010
2021/06/22 03:50 EEKE 220350Z 14007KT CAVOK 22/19 Q1010

2021/06/22 04:20 EETN 220420Z 15005KT CAVOK 24/18 Q1012 NOSIG
2021/06/22 03:50 EETU 220350Z AUTO 09004KT 9999 NCD 21/17 Q1013
   RIGA AIRPORT     EVRA               56 55N  023 58E   10   X     T          6 LV
   LIEPAJA INTL     EVLA        26406  56 31N  021 06E    4   X                8 LV
   VENTPILS         EVVA               57 21N  021 33E    6   X                8 LV
   KAUNAS           EYKA               54 54N  023 55E   77   X     T          6 LT
   PALANGA INTL     EYPA               55 55N  021 03E   10   X                6 LT
   SIAULIAI INTL    EYSA               55 54N  023 24E  135   X     T          6 LT
   VILNIUS INTL     EYVI        26730  54 38N  025 17E  197   X     T          6 LT
   KARDLA           EEKA        26116  58 59N  022 50E    4   X                8 EE
   KURESSAARE       EEKE               58 14N  022 31E    4   X                8 EE
   PARNU            EEPU               58 25N  024 28E   14   X                8 EE
   TALLINN          EETN        26038  59 24N  024 49E   40   X     T          8 EE
   TARTU            EETU               58 19N  026 41E   67   X                8 EE

rain/snow radar image from www.meteo.lv and METAR data from weather.noaa.gov